createdAt,value
2018-05-29T00:02:16.356Z,22.70
2018-05-29T00:04:43.770Z,22.70
2018-05-29T00:07:11.191Z,22.70
2018-05-29T00:09:38.600Z,22.60
2018-05-29T00:12:06.784Z,22.60
2018-05-29T00:14:34.221Z,22.60
2018-05-29T00:17:02.754Z,22.60
2018-05-29T00:19:30.176Z,22.70
2018-05-29T00:21:57.595Z,22.60
2018-05-29T00:24:25.008Z,22.60
2018-05-29T00:26:52.413Z,22.60
2018-05-29T00:29:19.842Z,22.60
2018-05-29T00:31:47.257Z,22.60
2018-05-29T00:34:16.191Z,22.60
2018-05-29T00:36:44.375Z,22.60
2018-05-29T00:39:11.794Z,22.60
2018-05-29T00:41:39.204Z,22.60
2018-05-29T00:44:07.422Z,22.50
2018-05-29T00:46:34.936Z,22.50
2018-05-29T00:49:02.348Z,22.60
2018-05-29T00:51:29.776Z,22.50
2018-05-29T00:53:57.198Z,22.40
2018-05-29T00:56:24.605Z,22.40
2018-05-29T00:58:52.023Z,22.40
2018-05-29T01:01:19.434Z,22.40
2018-05-29T01:03:46.846Z,22.40
2018-05-29T01:06:15.029Z,22.30
2018-05-29T01:08:43.215Z,22.30
2018-05-29T01:11:11.394Z,22.30
2018-05-29T01:13:39.572Z,22.20
2018-05-29T01:16:06.998Z,22.20
2018-05-29T01:18:34.457Z,22.10
2018-05-29T01:21:01.876Z,22.00
2018-05-29T01:23:29.297Z,22.00
2018-05-29T01:25:56.727Z,22.00
2018-05-29T01:28:24.665Z,22.00
2018-05-29T01:30:52.136Z,21.90
2018-05-29T01:33:19.553Z,21.90
2018-05-29T01:35:47.771Z,21.80
2018-05-29T01:38:15.173Z,21.90
2018-05-29T01:40:42.584Z,21.80
2018-05-29T01:43:10.770Z,21.80
2018-05-29T01:45:38.964Z,21.70
2018-05-29T01:48:06.376Z,21.70
2018-05-29T01:50:33.792Z,21.70
2018-05-29T01:53:01.973Z,21.60
2018-05-29T01:55:30.160Z,21.60
2018-05-29T01:57:58.335Z,21.50
2018-05-29T02:00:26.534Z,21.50
2018-05-29T02:02:54.713Z,21.40
2018-05-29T02:05:22.904Z,21.40
2018-05-29T02:07:51.104Z,21.40
2018-05-29T02:10:19.306Z,21.40
2018-05-29T02:12:46.723Z,21.40
2018-05-29T02:15:14.145Z,21.30
2018-05-29T02:17:41.590Z,21.30
2018-05-29T02:20:09.043Z,21.30
2018-05-29T02:22:36.471Z,21.40
2018-05-29T02:25:03.900Z,21.30
2018-05-29T02:27:32.102Z,21.30
2018-05-29T02:30:00.281Z,21.30
2018-05-29T02:32:28.473Z,21.30
2018-05-29T02:34:55.900Z,21.30
2018-05-29T02:37:23.316Z,21.30
2018-05-29T02:39:50.744Z,21.20
2018-05-29T02:42:18.157Z,21.20
2018-05-29T02:44:45.597Z,21.30
2018-05-29T02:47:13.816Z,21.20
2018-05-29T02:49:41.984Z,21.20
2018-05-29T02:52:10.183Z,21.20
2018-05-29T02:54:37.616Z,21.20
2018-05-29T02:57:05.043Z,21.20
2018-05-29T02:59:32.465Z,21.20
2018-05-29T03:02:00.668Z,21.20
2018-05-29T03:04:28.852Z,21.20
2018-05-29T03:06:57.045Z,21.20
2018-05-29T03:09:24.481Z,21.10
2018-05-29T03:11:51.898Z,21.40
2018-05-29T03:14:19.317Z,21.10
2018-05-29T03:16:47.521Z,21.20
2018-05-29T03:19:15.718Z,21.10
2018-05-29T03:21:43.913Z,21.10
2018-05-29T03:24:12.128Z,21.10
2018-05-29T03:26:39.561Z,21.10
2018-05-29T03:29:07.741Z,21.00
2018-05-29T03:31:35.938Z,21.10
2018-05-29T03:34:04.126Z,21.00
2018-05-29T03:36:32.340Z,21.00
2018-05-29T03:38:59.769Z,21.00
2018-05-29T03:41:27.970Z,21.00
2018-05-29T03:43:56.159Z,21.00
2018-05-29T03:46:24.340Z,21.00
2018-05-29T03:48:52.529Z,21.00
2018-05-29T03:51:20.739Z,21.00
2018-05-29T03:53:48.909Z,20.90
2018-05-29T03:56:17.088Z,20.90
2018-05-29T03:58:45.286Z,20.90
2018-05-29T04:01:12.748Z,20.90
2018-05-29T04:03:40.951Z,20.90
2018-05-29T04:06:08.372Z,20.90
2018-05-29T04:08:35.806Z,21.00
2018-05-29T04:11:03.233Z,21.00
2018-05-29T04:13:31.439Z,20.90
2018-05-29T04:15:59.629Z,21.00
2018-05-29T04:18:27.037Z,21.00
2018-05-29T04:20:54.484Z,21.00
2018-05-29T04:23:21.928Z,21.00
2018-05-29T04:25:49.375Z,21.10
2018-05-29T04:28:17.573Z,21.20
2018-05-29T04:30:45.771Z,21.30
2018-05-29T04:33:13.953Z,21.20
2018-05-29T04:35:42.160Z,21.20
2018-05-29T04:38:09.588Z,21.20
2018-05-29T04:40:37.035Z,21.20
2018-05-29T04:43:04.429Z,21.20
2018-05-29T04:45:31.861Z,21.30
2018-05-29T04:47:59.279Z,21.30
2018-05-29T04:50:27.464Z,21.40
2018-05-29T04:52:55.692Z,21.40
2018-05-29T04:55:23.115Z,21.30
2018-05-29T04:57:50.528Z,21.40
2018-05-29T05:00:17.950Z,21.40
2018-05-29T05:02:45.366Z,21.40
2018-05-29T05:05:12.793Z,21.40
2018-05-29T05:07:40.986Z,21.60
2018-05-29T05:10:09.177Z,21.60
2018-05-29T05:12:36.595Z,21.60
2018-05-29T05:15:04.010Z,21.80
2018-05-29T05:17:31.437Z,21.80
2018-05-29T05:20:00.372Z,21.80
2018-05-29T05:22:27.788Z,21.80
2018-05-29T05:24:55.239Z,21.80
2018-05-29T05:27:22.653Z,21.70
2018-05-29T05:29:50.073Z,21.70
2018-05-29T05:32:17.500Z,21.70
2018-05-29T05:34:44.931Z,21.90
2018-05-29T05:37:12.377Z,21.90
2018-05-29T05:39:39.795Z,21.90
2018-05-29T05:42:07.228Z,22.00
2018-05-29T05:44:34.662Z,22.00
2018-05-29T05:47:02.837Z,22.10
2018-05-29T05:49:30.284Z,22.10
2018-05-29T05:51:57.726Z,22.10
2018-05-29T05:54:25.180Z,22.20
2018-05-29T05:56:52.621Z,22.20
2018-05-29T05:59:20.828Z,22.40
2018-05-29T06:01:48.271Z,22.30
2018-05-29T06:04:16.460Z,22.50
2018-05-29T06:06:44.663Z,22.50
2018-05-29T06:09:12.078Z,22.50
2018-05-29T06:11:39.505Z,22.50
2018-05-29T06:14:06.930Z,22.50
2018-05-29T06:16:34.372Z,22.50
2018-05-29T06:19:01.845Z,22.60
2018-05-29T06:21:29.244Z,22.70
2018-05-29T06:23:57.453Z,22.90
2018-05-29T06:26:24.888Z,22.90
2018-05-29T06:28:52.304Z,22.90
2018-05-29T06:31:19.727Z,22.90
2018-05-29T06:33:47.167Z,23.00
2018-05-29T06:36:14.599Z,23.00
2018-05-29T06:38:42.817Z,23.00
2018-05-29T06:41:10.981Z,23.00
2018-05-29T06:43:38.425Z,23.00
2018-05-29T06:46:06.604Z,23.10
2018-05-29T06:48:34.798Z,23.30
2018-05-29T06:51:02.211Z,23.20
2018-05-29T06:53:29.665Z,23.40
2018-05-29T06:55:57.176Z,23.40
2018-05-29T06:58:24.591Z,23.40
2018-05-29T07:00:52.000Z,23.50
2018-05-29T07:03:20.193Z,23.50
2018-05-29T07:05:47.621Z,23.50
2018-05-29T07:08:15.040Z,23.60
2018-05-29T07:10:42.474Z,23.50
2018-05-29T07:13:09.896Z,23.60
2018-05-29T07:15:38.092Z,23.80
2018-05-29T07:18:05.531Z,23.70
2018-05-29T07:20:32.944Z,23.80
2018-05-29T07:23:00.365Z,23.90
2018-05-29T07:25:27.787Z,24.00
2018-05-29T07:27:55.231Z,24.00
2018-05-29T07:30:23.414Z,24.10
2018-05-29T07:32:51.596Z,24.10
2018-05-29T07:35:19.782Z,24.10
2018-05-29T07:37:47.960Z,24.10
2018-05-29T07:40:15.382Z,24.10
2018-05-29T07:42:42.810Z,24.10
2018-05-29T07:45:11.037Z,24.20
2018-05-29T07:47:38.431Z,24.10
2018-05-29T07:50:05.856Z,24.20
2018-05-29T07:52:33.274Z,24.30
2018-05-29T07:55:00.707Z,24.30
2018-05-29T07:57:28.116Z,24.40
2018-05-29T07:59:56.312Z,24.50
2018-05-29T08:02:23.740Z,24.40
2018-05-29T08:04:51.246Z,24.50
2018-05-29T08:07:18.657Z,24.50
2018-05-29T08:09:46.092Z,24.60
2018-05-29T08:12:14.305Z,24.80
2018-05-29T08:14:41.728Z,24.70
2018-05-29T08:17:09.916Z,24.90
2018-05-29T08:19:37.342Z,24.90
2018-05-29T08:22:04.790Z,25.10
2018-05-29T08:24:32.967Z,25.20
2018-05-29T08:27:00.380Z,25.20
2018-05-29T08:29:27.800Z,25.20
2018-05-29T08:31:55.987Z,25.40
2018-05-29T08:34:23.411Z,25.40
2018-05-29T08:36:50.832Z,25.50
2018-05-29T08:39:19.068Z,25.60
2018-05-29T08:41:46.454Z,25.50
2018-05-29T08:44:13.885Z,25.50
2018-05-29T08:46:41.348Z,25.60
2018-05-29T08:49:09.485Z,25.50
2018-05-29T08:51:37.681Z,25.60
2018-05-29T08:54:05.892Z,25.70
2018-05-29T08:56:33.312Z,25.60
2018-05-29T08:59:00.754Z,25.60
2018-05-29T09:01:28.184Z,25.60
2018-05-29T09:03:55.660Z,25.70
2018-05-29T09:06:23.042Z,25.80
2018-05-29T09:08:50.464Z,25.90
2018-05-29T09:11:19.395Z,25.90
2018-05-29T09:13:47.581Z,26.00
2018-05-29T09:16:15.788Z,26.10
2018-05-29T09:18:43.221Z,26.00
2018-05-29T09:21:11.410Z,25.90
2018-05-29T09:23:39.604Z,25.90
2018-05-29T09:26:07.827Z,26.00
2018-05-29T09:28:35.982Z,26.20
2018-05-29T09:31:04.172Z,26.00
2018-05-29T09:33:32.344Z,26.10
2018-05-29T09:36:00.537Z,26.20
2018-05-29T09:38:28.708Z,26.10
2018-05-29T09:40:56.142Z,26.00
2018-05-29T09:43:23.610Z,26.10
2018-05-29T09:45:51.112Z,26.20
2018-05-29T09:48:18.486Z,26.20
2018-05-29T09:50:45.870Z,26.20
2018-05-29T09:53:13.309Z,26.40
2018-05-29T09:55:40.714Z,26.50
2018-05-29T09:58:08.136Z,26.50
2018-05-29T10:00:40.411Z,26.50
2018-05-29T10:03:07.829Z,26.60
2018-05-29T10:05:35.249Z,26.70
2018-05-29T10:08:02.672Z,26.70
2018-05-29T10:10:30.085Z,26.70
2018-05-29T10:12:57.509Z,26.80
2018-05-29T10:15:24.935Z,26.90
2018-05-29T10:17:52.349Z,26.90
2018-05-29T10:20:19.784Z,26.90
2018-05-29T10:22:47.204Z,26.90
2018-05-29T10:25:14.625Z,26.90
2018-05-29T10:27:42.045Z,26.90
2018-05-29T10:30:09.474Z,26.90
2018-05-29T10:32:37.664Z,27.10
2018-05-29T10:35:05.857Z,27.20
2018-05-29T10:37:34.042Z,27.20
2018-05-29T10:40:02.224Z,27.30
2018-05-29T10:42:30.421Z,27.10
2018-05-29T10:44:58.615Z,27.10
2018-05-29T10:47:26.038Z,27.10
2018-05-29T10:49:53.460Z,27.20
2018-05-29T10:52:20.883Z,27.30
2018-05-29T10:54:49.078Z,27.30
2018-05-29T10:57:17.257Z,27.30
2018-05-29T10:59:45.447Z,27.40
2018-05-29T11:02:13.628Z,27.30
2018-05-29T11:04:41.812Z,27.30
2018-05-29T11:07:09.238Z,27.30
2018-05-29T11:09:36.668Z,27.20
2018-05-29T11:12:04.088Z,27.40
2018-05-29T11:14:31.529Z,27.30
2018-05-29T11:16:58.959Z,27.40
2018-05-29T11:19:27.184Z,27.50
2018-05-29T11:21:54.673Z,27.50
2018-05-29T11:24:22.112Z,27.50
2018-05-29T11:26:49.525Z,27.60
2018-05-29T11:29:16.940Z,27.90
2018-05-29T11:31:44.370Z,28.00
2018-05-29T11:34:11.780Z,27.70
2018-05-29T11:36:39.213Z,27.40
2018-05-29T11:39:06.628Z,27.40
2018-05-29T11:41:34.066Z,27.40
2018-05-29T11:44:01.481Z,27.20
2018-05-29T11:46:28.943Z,27.10
2018-05-29T11:48:56.379Z,27.10
2018-05-29T11:51:24.565Z,27.30
2018-05-29T11:53:52.772Z,27.30
2018-05-29T11:56:20.943Z,27.20
2018-05-29T11:58:49.144Z,27.30
2018-05-29T12:01:16.564Z,27.20
2018-05-29T12:03:44.014Z,27.40
2018-05-29T12:06:11.431Z,27.40
2018-05-29T12:08:39.623Z,27.60
2018-05-29T12:11:07.841Z,27.60
2018-05-29T12:13:35.291Z,27.50
2018-05-29T12:16:03.488Z,27.80
2018-05-29T12:18:30.985Z,27.80
2018-05-29T12:20:58.394Z,27.60
2018-05-29T12:23:26.584Z,27.80
2018-05-29T12:25:54.765Z,27.70
2018-05-29T12:28:22.988Z,27.60
2018-05-29T12:30:50.413Z,27.60
2018-05-29T12:33:18.598Z,27.20
2018-05-29T12:35:46.020Z,27.20
2018-05-29T12:38:13.441Z,27.20
2018-05-29T12:40:41.646Z,27.40
2018-05-29T12:43:09.867Z,27.60
2018-05-29T12:45:37.276Z,27.50
2018-05-29T12:48:05.468Z,27.20
2018-05-29T12:50:32.885Z,27.20
2018-05-29T12:53:00.304Z,27.10
2018-05-29T12:55:27.720Z,27.20
2018-05-29T12:57:55.158Z,27.10
2018-05-29T13:00:23.353Z,27.30
2018-05-29T13:02:51.544Z,27.40
2018-05-29T13:05:19.767Z,27.20
2018-05-29T13:07:47.161Z,27.20
2018-05-29T13:10:14.591Z,27.20
2018-05-29T13:12:42.005Z,27.20
2018-05-29T13:15:10.224Z,27.00
2018-05-29T13:17:37.632Z,27.00
2018-05-29T13:20:05.056Z,27.20
2018-05-29T13:22:32.533Z,27.20
2018-05-29T13:24:59.899Z,27.00
2018-05-29T13:27:27.341Z,27.10
2018-05-29T13:29:54.780Z,27.40
2018-05-29T13:32:22.168Z,27.70
2018-05-29T13:34:49.601Z,27.90
2018-05-29T13:37:17.025Z,28.00
2018-05-29T13:39:45.225Z,27.70
2018-05-29T13:42:12.663Z,27.70
2018-05-29T13:44:40.077Z,28.20
2018-05-29T13:47:07.501Z,28.30
2018-05-29T13:49:35.700Z,28.90
2018-05-29T13:52:03.143Z,28.90
2018-05-29T13:54:30.563Z,28.50
2018-05-29T13:56:57.968Z,28.90
2018-05-29T13:59:25.411Z,29.40
2018-05-29T14:01:52.823Z,29.30
2018-05-29T14:04:20.244Z,29.50
2018-05-29T14:06:47.659Z,29.30
2018-05-29T14:09:15.084Z,29.80
2018-05-29T14:11:42.507Z,29.80
2018-05-29T14:14:10.696Z,29.10
2018-05-29T14:16:38.905Z,29.20
2018-05-29T14:19:06.342Z,29.20
2018-05-29T14:21:33.770Z,29.10
2018-05-29T14:24:01.176Z,28.90
2018-05-29T14:26:28.619Z,28.60
2018-05-29T14:28:56.816Z,28.00
2018-05-29T14:31:24.236Z,28.00
2018-05-29T14:33:51.660Z,28.10
2018-05-29T14:36:19.068Z,27.90
2018-05-29T14:38:46.525Z,27.70
2018-05-29T14:41:13.944Z,27.70
2018-05-29T14:43:41.387Z,28.10
2018-05-29T14:46:09.575Z,28.40
2018-05-29T14:48:36.989Z,28.40
2018-05-29T14:51:04.425Z,28.00
2018-05-29T14:53:31.854Z,27.70
2018-05-29T14:56:00.045Z,27.50
2018-05-29T14:58:27.472Z,27.60
2018-05-29T15:00:54.888Z,27.40
2018-05-29T15:03:22.328Z,27.50
2018-05-29T15:05:49.736Z,27.10
2018-05-29T15:08:17.179Z,26.90
2018-05-29T15:10:45.456Z,26.60
2018-05-29T15:13:13.657Z,26.20
2018-05-29T15:15:41.860Z,26.20
2018-05-29T15:18:09.313Z,26.20
2018-05-29T15:20:37.500Z,26.10
2018-05-29T15:23:05.685Z,26.10
2018-05-29T15:25:33.878Z,26.00
2018-05-29T15:28:02.104Z,25.90
2018-05-29T15:30:29.532Z,25.80
2018-05-29T15:32:57.754Z,25.80
2018-05-29T15:35:25.175Z,25.80
2018-05-29T15:37:52.600Z,25.80
2018-05-29T15:40:20.020Z,25.80
2018-05-29T15:42:47.478Z,25.70
2018-05-29T15:45:14.879Z,25.60
2018-05-29T15:47:42.317Z,25.60
2018-05-29T15:50:10.506Z,25.60
2018-05-29T15:52:38.689Z,25.60
2018-05-29T15:55:06.105Z,25.60
2018-05-29T15:57:33.564Z,25.50
2018-05-29T16:00:01.100Z,25.60
2018-05-29T16:02:28.440Z,25.70
2018-05-29T16:04:55.852Z,25.70
2018-05-29T16:07:23.284Z,25.60
2018-05-29T16:09:50.712Z,25.50
2018-05-29T16:12:18.139Z,25.60
2018-05-29T16:14:46.324Z,25.30
2018-05-29T16:17:14.516Z,25.30
2018-05-29T16:19:42.701Z,25.40
2018-05-29T16:22:10.886Z,25.30
2018-05-29T16:24:39.064Z,25.30
2018-05-29T16:27:07.245Z,25.20
2018-05-29T16:29:34.681Z,25.20
2018-05-29T16:32:02.866Z,25.20
2018-05-29T16:34:30.312Z,25.20
2018-05-29T16:36:57.723Z,25.40
2018-05-29T16:39:25.157Z,25.40
2018-05-29T16:41:52.681Z,25.50
2018-05-29T16:44:20.121Z,25.70
2018-05-29T16:46:47.551Z,25.40
2018-05-29T16:49:14.964Z,25.40
2018-05-29T16:51:42.488Z,25.10
2018-05-29T16:54:09.888Z,25.10
2018-05-29T16:56:37.312Z,25.10
2018-05-29T16:59:04.725Z,25.10
2018-05-29T17:01:32.153Z,25.10
2018-05-29T17:03:59.568Z,25.10
2018-05-29T17:06:27.006Z,25.20
2018-05-29T17:08:54.521Z,25.10
2018-05-29T17:11:21.952Z,25.10
2018-05-29T17:13:49.364Z,24.90
2018-05-29T17:16:16.800Z,25.00
2018-05-29T17:18:44.228Z,24.90
2018-05-29T17:21:11.636Z,24.90
2018-05-29T17:23:39.069Z,24.80
2018-05-29T17:26:07.262Z,24.80
2018-05-29T17:28:35.459Z,24.70
2018-05-29T17:31:02.876Z,24.70
2018-05-29T17:33:30.310Z,24.60
2018-05-29T17:35:57.732Z,24.60
2018-05-29T17:38:25.160Z,24.50
2018-05-29T17:40:52.589Z,24.60
2018-05-29T17:43:20.772Z,24.70
2018-05-29T17:45:48.205Z,24.70
2018-05-29T17:48:15.617Z,24.70
2018-05-29T17:50:43.034Z,24.70
2018-05-29T17:53:10.476Z,24.80
2018-05-29T17:55:37.905Z,24.90
2018-05-29T17:58:06.093Z,25.20
2018-05-29T18:00:34.303Z,25.50
2018-05-29T18:03:01.720Z,25.50
2018-05-29T18:05:29.141Z,25.80
2018-05-29T18:07:56.576Z,26.10
2018-05-29T18:10:23.975Z,26.20
2018-05-29T18:12:52.151Z,27.00
2018-05-29T18:15:20.332Z,27.40
2018-05-29T18:17:48.509Z,26.90
2018-05-29T18:20:16.701Z,26.30
2018-05-29T18:22:44.120Z,26.30
2018-05-29T18:25:11.535Z,26.00
2018-05-29T18:27:38.967Z,25.80
2018-05-29T18:30:06.393Z,25.60
2018-05-29T18:32:34.570Z,25.50
2018-05-29T18:35:02.761Z,25.50
2018-05-29T18:37:30.945Z,25.40
2018-05-29T18:39:59.152Z,25.30
2018-05-29T18:42:26.576Z,25.30
2018-05-29T18:44:53.986Z,25.20
2018-05-29T18:47:21.421Z,25.10
2018-05-29T18:49:48.863Z,25.00
2018-05-29T18:52:16.274Z,24.90
2018-05-29T18:54:44.087Z,24.80
2018-05-29T18:57:11.534Z,24.80
2018-05-29T18:59:39.756Z,24.50
2018-05-29T19:02:07.188Z,24.50
2018-05-29T19:04:35.382Z,24.40
2018-05-29T19:07:03.584Z,24.40
2018-05-29T19:09:31.009Z,24.40
2018-05-29T19:11:58.473Z,24.30
2018-05-29T19:14:25.888Z,24.20
2018-05-29T19:16:53.327Z,24.00
2018-05-29T19:19:20.828Z,23.90
2018-05-29T19:21:49.089Z,23.80
2018-05-29T19:24:17.264Z,23.80
2018-05-29T19:26:44.707Z,23.80
2018-05-29T19:29:12.120Z,23.70
2018-05-29T19:31:40.312Z,23.70
2018-05-29T19:34:08.502Z,23.60
2018-05-29T19:36:36.701Z,23.60
2018-05-29T19:39:06.956Z,23.60
2018-05-29T19:41:34.369Z,23.50
2018-05-29T19:44:01.856Z,23.50
2018-05-29T19:46:30.057Z,23.40
2018-05-29T19:48:57.484Z,23.30
2018-05-29T19:51:24.911Z,23.30
2018-05-29T19:53:52.356Z,23.30
2018-05-29T19:56:19.801Z,23.30
2018-05-29T19:58:47.220Z,23.20
2018-05-29T20:01:14.682Z,23.20
2018-05-29T20:03:42.064Z,23.20
2018-05-29T20:06:09.495Z,23.20
2018-05-29T20:08:37.727Z,23.10
2018-05-29T20:11:05.140Z,23.10
2018-05-29T20:13:32.569Z,23.10
2018-05-29T20:16:00.016Z,23.00
2018-05-29T20:18:27.438Z,23.00
2018-05-29T20:20:54.897Z,23.00
2018-05-29T20:23:22.292Z,22.90
2018-05-29T20:25:50.483Z,22.80
2018-05-29T20:28:18.656Z,22.70
2018-05-29T20:30:46.085Z,22.70
2018-05-29T20:33:13.516Z,22.70
2018-05-29T20:35:41.700Z,22.70
2018-05-29T20:38:09.897Z,22.60
2018-05-29T20:40:38.072Z,22.60
2018-05-29T20:43:06.273Z,22.50
2018-05-29T20:45:34.455Z,22.50
2018-05-29T20:48:02.655Z,22.50
2018-05-29T20:50:30.085Z,22.50
2018-05-29T20:52:57.508Z,22.50
2018-05-29T20:55:24.996Z,22.40
2018-05-29T20:57:52.364Z,22.40
2018-05-29T21:00:19.784Z,22.40
2018-05-29T21:02:47.968Z,22.20
2018-05-29T21:05:16.172Z,22.20
2018-05-29T21:07:44.344Z,22.20
2018-05-29T21:10:12.555Z,22.00
2018-05-29T21:12:39.985Z,21.90
2018-05-29T21:15:07.425Z,22.00
2018-05-29T21:17:34.879Z,22.00
2018-05-29T21:20:03.044Z,22.10
2018-05-29T21:22:30.480Z,22.00
2018-05-29T21:24:57.896Z,22.00
2018-05-29T21:27:25.326Z,22.10
2018-05-29T21:29:53.528Z,22.00
2018-05-29T21:32:21.733Z,22.00
2018-05-29T21:34:49.151Z,22.00
2018-05-29T21:37:16.570Z,22.00
2018-05-29T21:39:43.997Z,22.00
2018-05-29T21:42:12.211Z,22.00
2018-05-29T21:44:40.444Z,22.00
2018-05-29T21:47:07.856Z,22.00
2018-05-29T21:49:36.077Z,22.00
2018-05-29T21:52:03.500Z,22.00
2018-05-29T21:54:30.923Z,22.00
2018-05-29T21:56:58.343Z,21.90
2018-05-29T21:59:25.769Z,21.90
2018-05-29T22:01:53.197Z,21.90
2018-05-29T22:04:21.368Z,21.80
2018-05-29T22:06:48.809Z,21.80
2018-05-29T22:09:16.228Z,21.80
2018-05-29T22:11:44.411Z,21.80
2018-05-29T22:14:12.612Z,21.80
2018-05-29T22:16:40.030Z,21.80
2018-05-29T22:19:07.453Z,21.80
2018-05-29T22:21:34.888Z,21.70
2018-05-29T22:24:02.397Z,21.80
2018-05-29T22:26:29.825Z,21.70
2018-05-29T22:28:57.253Z,21.70
2018-05-29T22:31:24.694Z,21.60
2018-05-29T22:33:52.122Z,21.70
2018-05-29T22:36:19.531Z,21.50
2018-05-29T22:38:46.969Z,21.50
2018-05-29T22:41:14.405Z,21.50
2018-05-29T22:43:41.819Z,21.40
2018-05-29T22:46:09.322Z,21.40
2018-05-29T22:48:36.777Z,21.30
2018-05-29T22:51:04.208Z,21.30
2018-05-29T22:53:31.631Z,21.30
2018-05-29T22:55:59.052Z,21.30
2018-05-29T22:58:26.484Z,21.30
2018-05-29T23:00:53.900Z,21.30
2018-05-29T23:03:22.094Z,21.30
2018-05-29T23:05:50.290Z,21.30
2018-05-29T23:08:17.713Z,21.30
2018-05-29T23:10:45.149Z,21.30
2018-05-29T23:13:12.572Z,21.30
2018-05-29T23:15:40.016Z,21.10
2018-05-29T23:18:07.453Z,21.20
2018-05-29T23:20:34.863Z,21.20
2018-05-29T23:23:03.060Z,21.20
2018-05-29T23:25:31.403Z,21.10
2018-05-29T23:27:58.815Z,21.20
2018-05-29T23:30:26.246Z,21.20
2018-05-29T23:32:53.652Z,21.10
2018-05-29T23:35:22.601Z,21.00
2018-05-29T23:37:50.024Z,21.00
2018-05-29T23:40:18.966Z,21.00
2018-05-29T23:42:47.142Z,21.00
2018-05-29T23:45:15.319Z,21.00
2018-05-29T23:47:43.516Z,21.00
2018-05-29T23:50:11.698Z,21.00
2018-05-29T23:52:39.879Z,20.90
2018-05-29T23:55:07.320Z,20.80
2018-05-29T23:57:34.750Z,20.80
